createdAt,value
2017-10-18T00:02:24.366Z,99.60
2017-10-18T00:04:52.852Z,99.30
2017-10-18T00:07:20.356Z,99.20
2017-10-18T00:09:47.831Z,99.30
2017-10-18T00:12:15.730Z,99.10
2017-10-18T00:14:43.207Z,99.10
2017-10-18T00:17:10.696Z,99.00
2017-10-18T00:19:38.199Z,98.90
2017-10-18T00:22:05.675Z,98.90
2017-10-18T00:24:33.188Z,98.80
2017-10-18T00:27:01.975Z,98.80
2017-10-18T00:29:29.854Z,98.80
2017-10-18T00:31:57.760Z,98.80
2017-10-18T00:34:25.249Z,98.80
2017-10-18T00:36:52.763Z,98.80
2017-10-18T00:39:20.243Z,98.90
2017-10-18T00:41:47.755Z,99.00
2017-10-18T00:44:15.635Z,99.10
2017-10-18T00:46:43.121Z,99.10
2017-10-18T00:49:10.634Z,98.80
2017-10-18T00:51:40.467Z,98.80
2017-10-18T00:54:07.961Z,98.80
2017-10-18T00:56:35.463Z,98.90
2017-10-18T00:59:03.344Z,99.00
2017-10-18T01:01:30.876Z,98.90
2017-10-18T01:03:59.707Z,99.10
2017-10-18T01:06:27.223Z,99.10
2017-10-18T01:08:54.737Z,99.40
2017-10-18T01:11:22.235Z,99.60
2017-10-18T01:13:49.715Z,99.70
2017-10-18T01:16:18.179Z,99.80
2017-10-18T01:18:46.082Z,99.60
2017-10-18T01:21:13.590Z,99.60
2017-10-18T01:23:41.059Z,99.30
2017-10-18T01:26:08.559Z,99.10
2017-10-18T01:28:36.040Z,98.80
2017-10-18T01:31:03.551Z,98.60
2017-10-18T01:33:31.432Z,98.80
2017-10-18T01:36:00.923Z,98.80
2017-10-18T01:38:28.803Z,98.70
2017-10-18T01:40:56.303Z,98.70
2017-10-18T01:43:23.783Z,98.80
2017-10-18T01:45:51.281Z,99.10
2017-10-18T01:48:18.767Z,99.40
2017-10-18T01:50:46.260Z,99.60
2017-10-18T01:53:13.735Z,99.60
2017-10-18T01:55:43.558Z,99.60
2017-10-18T01:58:11.038Z,99.60
2017-10-18T02:00:38.535Z,99.80
2017-10-18T02:03:06.020Z,99.60
2017-10-18T02:05:33.902Z,99.50
2017-10-18T02:08:01.402Z,99.50
2017-10-18T02:10:28.891Z,99.50
2017-10-18T02:12:58.337Z,99.60
2017-10-18T02:15:25.818Z,99.60
2017-10-18T02:17:54.232Z,99.70
2017-10-18T02:20:21.731Z,99.70
2017-10-18T02:22:49.215Z,99.70
2017-10-18T02:25:16.719Z,99.80
2017-10-18T02:27:44.599Z,99.70
2017-10-18T02:30:13.050Z,99.70
2017-10-18T02:32:40.576Z,99.50
2017-10-18T02:35:08.074Z,99.40
2017-10-18T02:37:35.980Z,99.40
2017-10-18T02:40:05.419Z,99.40
2017-10-18T02:42:32.902Z,99.50
2017-10-18T02:45:02.361Z,99.50
2017-10-18T02:47:29.852Z,99.50
2017-10-18T02:49:57.322Z,99.40
2017-10-18T02:52:25.275Z,99.50
2017-10-18T02:54:52.764Z,99.50
2017-10-18T02:57:22.617Z,99.70
2017-10-18T02:59:50.127Z,99.70
2017-10-18T03:02:18.007Z,99.80
2017-10-18T03:04:45.499Z,99.80
2017-10-18T03:07:12.975Z,99.80
2017-10-18T03:09:40.470Z,99.60
2017-10-18T03:12:08.030Z,99.50
2017-10-18T03:14:35.907Z,99.40
2017-10-18T03:17:03.389Z,99.40
2017-10-18T03:19:32.878Z,99.40
2017-10-18T03:22:00.379Z,99.40
2017-10-18T03:24:27.860Z,99.40
2017-10-18T03:26:55.350Z,99.40
2017-10-18T03:29:22.841Z,99.40
2017-10-18T03:31:50.357Z,99.40
2017-10-18T03:34:17.841Z,99.40
2017-10-18T03:36:45.344Z,99.10
2017-10-18T03:39:13.057Z,99.10
2017-10-18T03:41:40.563Z,99.20
2017-10-18T03:44:08.051Z,99.30
2017-10-18T03:46:35.950Z,99.60
2017-10-18T03:49:04.354Z,99.60
2017-10-18T03:51:31.832Z,99.70
2017-10-18T03:53:59.327Z,99.80
2017-10-18T03:56:26.804Z,99.80
2017-10-18T03:58:54.307Z,99.80
2017-10-18T04:01:21.775Z,99.80
2017-10-18T04:03:49.656Z,99.80
2017-10-18T04:06:18.119Z,99.80
2017-10-18T04:08:46.001Z,99.90
2017-10-18T04:11:13.900Z,99.90
2017-10-18T04:13:41.405Z,99.90
2017-10-18T04:16:09.287Z,99.70
2017-10-18T04:18:37.187Z,99.60
2017-10-18T04:21:05.662Z,99.60
2017-10-18T04:23:33.161Z,99.60
2017-10-18T04:26:00.649Z,99.60
2017-10-18T04:28:34.411Z,99.60
2017-10-18T04:31:01.911Z,99.60
2017-10-18T04:33:30.742Z,99.90
2017-10-18T04:35:58.244Z,99.90
2017-10-18T04:38:25.730Z,99.90
2017-10-18T04:40:53.231Z,99.90
2017-10-18T04:43:20.705Z,99.90
2017-10-18T04:45:48.204Z,99.90
2017-10-18T04:48:15.682Z,99.90
2017-10-18T04:50:43.179Z,99.90
2017-10-18T04:53:11.593Z,99.90
2017-10-18T04:55:39.499Z,99.90
2017-10-18T04:58:06.998Z,99.90
2017-10-18T05:00:34.487Z,99.90
2017-10-18T05:03:01.986Z,99.90
2017-10-18T05:05:29.476Z,99.90
2017-10-18T05:07:57.359Z,99.90
2017-10-18T05:10:24.875Z,99.90
2017-10-18T05:12:52.369Z,99.90
2017-10-18T05:15:20.260Z,99.90
2017-10-18T05:17:48.585Z,99.90
2017-10-18T05:20:16.065Z,99.90
2017-10-18T05:22:43.951Z,99.90
2017-10-18T05:25:11.433Z,99.90
2017-10-18T05:27:38.927Z,99.90
2017-10-18T05:30:06.418Z,99.90
2017-10-18T05:32:34.415Z,99.90
2017-10-18T05:35:01.911Z,99.90
2017-10-18T05:37:29.401Z,99.90
2017-10-18T05:39:56.924Z,99.90
2017-10-18T05:42:24.451Z,99.90
2017-10-18T05:44:51.934Z,99.90
2017-10-18T05:47:19.434Z,99.90
2017-10-18T05:49:47.330Z,99.90
2017-10-18T05:52:14.812Z,99.90
2017-10-18T05:54:42.322Z,99.90
2017-10-18T05:57:10.191Z,99.90
2017-10-18T05:59:37.690Z,99.90
2017-10-18T06:02:05.177Z,99.90
2017-10-18T06:04:32.688Z,99.90
2017-10-18T06:07:00.167Z,99.90
2017-10-18T06:09:27.667Z,99.90
2017-10-18T06:11:55.538Z,99.90
2017-10-18T06:14:23.439Z,99.90
2017-10-18T06:16:50.915Z,99.90
2017-10-18T06:19:18.411Z,99.90
2017-10-18T06:21:46.287Z,99.90
2017-10-18T06:24:14.207Z,99.90
2017-10-18T06:26:42.638Z,99.90
2017-10-18T06:29:10.526Z,99.90
2017-10-18T06:31:38.013Z,99.90
2017-10-18T06:34:05.491Z,99.90
2017-10-18T06:36:34.975Z,99.90
2017-10-18T06:39:02.451Z,99.90
2017-10-18T06:41:29.950Z,99.90
2017-10-18T06:43:57.445Z,99.90
2017-10-18T06:46:24.918Z,99.90
2017-10-18T06:48:52.422Z,99.90
2017-10-18T06:51:19.908Z,99.90
2017-10-18T06:53:48.372Z,99.90
2017-10-18T06:56:15.859Z,99.90
2017-10-18T06:58:43.371Z,99.90
2017-10-18T07:01:25.719Z,99.90
2017-10-18T07:03:53.228Z,99.90
2017-10-18T07:06:21.098Z,99.90
2017-10-18T07:08:48.971Z,99.90
2017-10-18T07:11:16.880Z,99.90
2017-10-18T07:13:44.384Z,99.90
2017-10-18T07:16:12.259Z,99.90
2017-10-18T07:18:40.157Z,99.90
2017-10-18T07:21:07.634Z,99.90
2017-10-18T07:23:35.135Z,99.90
2017-10-18T07:26:03.014Z,99.90
2017-10-18T07:28:30.910Z,99.90
2017-10-18T07:30:58.399Z,99.90
2017-10-18T07:33:25.899Z,99.90
2017-10-18T07:35:53.411Z,99.90
2017-10-18T07:38:20.900Z,99.90
2017-10-18T07:40:48.779Z,99.90
2017-10-18T07:43:16.281Z,99.90
2017-10-18T07:45:43.766Z,99.90
2017-10-18T07:48:11.265Z,99.90
2017-10-18T07:50:38.751Z,99.90
2017-10-18T07:53:06.249Z,99.90
2017-10-18T07:55:34.157Z,99.90
2017-10-18T07:58:02.603Z,99.90
2017-10-18T08:00:30.499Z,99.70
2017-10-18T08:02:57.996Z,99.70
2017-10-18T08:05:25.487Z,99.60
2017-10-18T08:07:53.391Z,99.50
2017-10-18T08:10:20.888Z,99.50
2017-10-18T08:12:48.420Z,99.40
2017-10-18T08:15:15.903Z,99.30
2017-10-18T08:17:43.409Z,99.50
2017-10-18T08:20:10.915Z,99.60
2017-10-18T08:22:38.425Z,99.60
2017-10-18T08:25:05.934Z,99.60
2017-10-18T08:27:33.423Z,99.70
2017-10-18T08:30:01.424Z,99.70
2017-10-18T08:32:28.911Z,99.70
2017-10-18T08:34:56.419Z,99.80
2017-10-18T08:37:23.919Z,99.90
2017-10-18T08:39:51.431Z,99.60
2017-10-18T08:42:18.928Z,99.20
2017-10-18T08:44:46.434Z,99.00
2017-10-18T08:47:14.445Z,99.00
2017-10-18T08:49:41.961Z,99.00
2017-10-18T08:52:09.847Z,98.90
2017-10-18T08:54:37.355Z,98.90
2017-10-18T08:57:05.239Z,98.60
2017-10-18T08:59:32.737Z,98.60
2017-10-18T09:02:00.779Z,98.40
2017-10-18T09:04:28.270Z,98.40
2017-10-18T09:06:55.809Z,98.30
2017-10-18T09:09:23.283Z,98.20
2017-10-18T09:11:50.773Z,98.00
2017-10-18T09:14:18.302Z,98.00
2017-10-18T09:16:45.800Z,98.10
2017-10-18T09:19:13.325Z,98.10
2017-10-18T09:21:40.820Z,98.00
2017-10-18T09:24:08.316Z,97.80
2017-10-18T09:26:36.215Z,97.20
2017-10-18T09:29:03.723Z,97.20
2017-10-18T09:31:31.635Z,96.30
2017-10-18T09:33:59.123Z,96.30
2017-10-18T09:36:26.634Z,95.50
2017-10-18T09:38:54.153Z,95.40
2017-10-18T09:41:21.648Z,95.20
2017-10-18T09:43:49.176Z,95.20
2017-10-18T09:46:16.667Z,94.60
2017-10-18T09:48:44.163Z,94.80
2017-10-18T09:51:11.675Z,94.70
2017-10-18T09:53:39.560Z,94.40
2017-10-18T09:56:07.067Z,94.40
2017-10-18T09:58:34.584Z,94.50
2017-10-18T10:01:02.083Z,94.00
2017-10-18T10:03:29.591Z,93.90
2017-10-18T10:05:57.100Z,92.90
2017-10-18T10:08:24.587Z,93.00
2017-10-18T10:10:52.495Z,93.40
2017-10-18T10:13:21.783Z,93.40
2017-10-18T10:15:49.290Z,93.10
2017-10-18T10:18:16.790Z,93.10
2017-10-18T10:20:44.310Z,93.20
2017-10-18T10:23:11.807Z,93.10
2017-10-18T10:25:39.315Z,93.10
2017-10-18T10:28:06.810Z,92.70
2017-10-18T10:30:34.711Z,91.70
2017-10-18T10:33:02.207Z,91.70
2017-10-18T10:35:29.721Z,92.20
2017-10-18T10:37:57.212Z,91.20
2017-10-18T10:40:26.668Z,91.00
2017-10-18T10:42:54.155Z,90.60
2017-10-18T10:45:21.666Z,90.70
2017-10-18T10:47:49.534Z,89.10
2017-10-18T10:50:17.428Z,88.40
2017-10-18T10:52:44.911Z,88.40
2017-10-18T10:55:12.406Z,87.90
2017-10-18T10:57:40.308Z,86.40
2017-10-18T11:00:07.795Z,86.50
2017-10-18T11:02:35.300Z,87.20
2017-10-18T11:05:03.182Z,87.40
2017-10-18T11:07:30.670Z,87.40
2017-10-18T11:09:58.170Z,87.40
2017-10-18T11:12:25.654Z,87.20
2017-10-18T11:14:55.117Z,86.50
2017-10-18T11:17:22.592Z,86.20
2017-10-18T11:19:50.078Z,86.10
2017-10-18T11:22:17.585Z,85.50
2017-10-18T11:24:45.062Z,84.60
2017-10-18T11:27:12.565Z,85.40
2017-10-18T11:29:40.063Z,85.50
2017-10-18T11:32:07.558Z,86.20
2017-10-18T11:34:35.464Z,84.60
2017-10-18T11:37:03.000Z,84.60
2017-10-18T11:39:32.437Z,84.60
2017-10-18T11:41:59.923Z,84.50
2017-10-18T11:44:27.415Z,84.00
2017-10-18T11:46:54.895Z,83.60
2017-10-18T11:49:22.399Z,83.90
2017-10-18T11:51:49.883Z,84.50
2017-10-18T11:54:17.400Z,83.90
2017-10-18T11:56:44.875Z,84.20
2017-10-18T11:59:13.735Z,83.30
2017-10-18T12:01:41.211Z,83.30
2017-10-18T12:04:10.672Z,83.30
2017-10-18T12:06:38.150Z,82.70
2017-10-18T12:09:07.605Z,83.30
2017-10-18T12:11:35.477Z,82.50
2017-10-18T12:14:02.978Z,82.50
2017-10-18T12:16:30.462Z,82.70
2017-10-18T12:18:57.970Z,82.60
2017-10-18T12:21:25.455Z,82.10
2017-10-18T12:23:52.970Z,81.60
2017-10-18T12:26:20.460Z,81.70
2017-10-18T12:28:48.142Z,81.20
2017-10-18T12:31:15.640Z,81.20
2017-10-18T12:33:43.538Z,80.50
2017-10-18T12:36:11.039Z,80.60
2017-10-18T12:38:38.543Z,80.80
2017-10-18T12:41:06.031Z,80.80
2017-10-18T12:43:34.471Z,80.50
2017-10-18T12:46:01.979Z,80.70
2017-10-18T12:48:31.432Z,80.50
2017-10-18T12:50:58.924Z,80.80
2017-10-18T12:53:26.423Z,80.40
2017-10-18T12:55:53.904Z,80.50
2017-10-18T12:58:21.807Z,80.30
2017-10-18T13:00:49.294Z,80.30
2017-10-18T13:03:16.821Z,80.40
2017-10-18T13:05:44.302Z,80.30
2017-10-18T13:08:11.802Z,80.90
2017-10-18T13:10:39.286Z,80.20
2017-10-18T13:13:07.779Z,80.70
2017-10-18T13:15:35.259Z,81.00
2017-10-18T13:18:02.778Z,80.60
2017-10-18T13:20:31.203Z,80.70
2017-10-18T13:22:58.698Z,81.20
2017-10-18T13:25:26.172Z,80.90
2017-10-18T13:27:55.599Z,80.80
2017-10-18T13:30:23.082Z,80.60
2017-10-18T13:32:50.568Z,80.30
2017-10-18T13:35:18.453Z,80.10
2017-10-18T13:37:45.939Z,80.10
2017-10-18T13:40:13.438Z,80.20
2017-10-18T13:42:41.318Z,81.40
2017-10-18T13:45:09.212Z,80.60
2017-10-18T13:47:36.715Z,80.70
2017-10-18T13:50:04.198Z,80.80
2017-10-18T13:52:32.092Z,80.90
2017-10-18T13:54:59.583Z,80.90
2017-10-18T13:57:27.054Z,81.00
2017-10-18T13:59:54.551Z,81.00
2017-10-18T14:02:22.055Z,81.00
2017-10-18T14:04:49.559Z,81.20
2017-10-18T14:07:17.433Z,80.80
2017-10-18T14:09:44.915Z,80.80
2017-10-18T14:12:12.406Z,80.60
2017-10-18T14:14:39.895Z,80.80
2017-10-18T14:17:07.787Z,81.10
2017-10-18T14:19:35.281Z,81.10
2017-10-18T14:22:03.738Z,80.90
2017-10-18T14:24:31.215Z,81.30
2017-10-18T14:26:58.691Z,80.50
2017-10-18T14:29:26.202Z,80.90
2017-10-18T14:31:53.695Z,81.10
2017-10-18T14:34:21.531Z,81.50
2017-10-18T14:36:49.016Z,82.30
2017-10-18T14:39:16.499Z,81.80
2017-10-18T14:41:44.451Z,82.70
2017-10-18T14:44:11.945Z,82.70
2017-10-18T14:46:39.863Z,82.60
2017-10-18T14:49:07.413Z,82.60
2017-10-18T14:51:34.933Z,82.90
2017-10-18T14:54:02.460Z,82.60
2017-10-18T14:56:29.950Z,83.20
2017-10-18T14:58:57.460Z,83.00
2017-10-18T15:01:25.904Z,83.30
2017-10-18T15:03:53.439Z,83.60
2017-10-18T15:06:21.319Z,83.90
2017-10-18T15:08:48.837Z,83.90
2017-10-18T15:11:16.458Z,83.60
2017-10-18T15:13:44.708Z,84.10
2017-10-18T15:16:12.219Z,84.50
2017-10-18T15:18:39.770Z,84.90
2017-10-18T15:21:08.241Z,85.90
2017-10-18T15:23:35.768Z,86.00
2017-10-18T15:26:03.298Z,86.00
2017-10-18T15:28:30.818Z,86.60
2017-10-18T15:30:58.327Z,87.00
2017-10-18T15:33:26.242Z,87.70
2017-10-18T15:35:53.805Z,87.70
2017-10-18T15:38:25.247Z,88.00
2017-10-18T15:40:52.747Z,88.10
2017-10-18T15:43:20.249Z,88.50
2017-10-18T15:45:47.766Z,88.80
2017-10-18T15:48:16.224Z,88.90
2017-10-18T15:50:43.768Z,89.20
2017-10-18T15:53:11.269Z,89.30
2017-10-18T15:55:39.723Z,89.40
2017-10-18T15:58:07.338Z,89.40
2017-10-18T16:00:34.883Z,89.60
2017-10-18T16:03:02.803Z,90.20
2017-10-18T16:05:30.341Z,90.10
2017-10-18T16:07:57.872Z,90.20
2017-10-18T16:10:25.767Z,90.90
2017-10-18T16:12:53.279Z,90.90
2017-10-18T16:15:21.211Z,91.00
2017-10-18T16:17:48.732Z,91.00
2017-10-18T16:20:17.152Z,91.00
2017-10-18T16:22:44.652Z,91.00
2017-10-18T16:25:12.562Z,91.80
2017-10-18T16:27:40.082Z,91.80
2017-10-18T16:30:07.969Z,91.90
2017-10-18T16:32:35.506Z,91.90
2017-10-18T16:35:03.410Z,92.80
2017-10-18T16:37:30.922Z,92.80
2017-10-18T16:39:58.458Z,92.90
2017-10-18T16:42:25.975Z,93.20
2017-10-18T16:44:53.455Z,93.10
2017-10-18T16:47:20.976Z,93.00
2017-10-18T16:49:49.127Z,93.20
2017-10-18T16:52:16.688Z,93.20
2017-10-18T16:54:44.174Z,93.50
2017-10-18T16:57:11.679Z,93.50
2017-10-18T16:59:39.187Z,93.60
2017-10-18T17:02:06.676Z,93.80
2017-10-18T17:04:36.140Z,93.90
2017-10-18T17:07:05.969Z,94.60
2017-10-18T17:09:33.482Z,94.60
2017-10-18T17:12:01.951Z,94.50
2017-10-18T17:14:29.447Z,94.40
2017-10-18T17:16:57.351Z,94.90
2017-10-18T17:19:25.788Z,94.90
2017-10-18T17:21:53.705Z,94.90
2017-10-18T17:24:21.219Z,94.90
2017-10-18T17:26:49.150Z,95.20
2017-10-18T17:29:17.071Z,95.20
2017-10-18T17:31:44.629Z,95.20
2017-10-18T17:34:14.142Z,95.40
2017-10-18T17:36:41.666Z,95.40
2017-10-18T17:39:09.583Z,95.80
2017-10-18T17:41:37.132Z,95.80
2017-10-18T17:44:05.604Z,95.80
2017-10-18T17:46:33.995Z,95.80
2017-10-18T17:49:02.483Z,95.90
2017-10-18T17:51:30.012Z,95.80
2017-10-18T17:53:57.951Z,95.90
2017-10-18T17:56:25.447Z,95.90
2017-10-18T17:58:52.966Z,96.00
2017-10-18T18:01:20.499Z,96.40
2017-10-18T18:03:48.020Z,96.60
2017-10-18T18:06:15.566Z,96.40
2017-10-18T18:08:43.475Z,96.30
2017-10-18T18:11:10.965Z,96.30
2017-10-18T18:13:38.511Z,96.40
2017-10-18T18:16:06.010Z,96.40
2017-10-18T18:18:33.543Z,96.60
2017-10-18T18:21:01.064Z,96.70
2017-10-18T18:23:28.579Z,96.80
2017-10-18T18:25:56.486Z,96.80
2017-10-18T18:28:23.998Z,96.80
2017-10-18T18:30:51.944Z,96.80
2017-10-18T18:33:19.486Z,96.80
2017-10-18T18:35:47.005Z,97.00
2017-10-18T18:38:14.902Z,97.10
2017-10-18T18:40:42.448Z,97.10
2017-10-18T18:43:09.963Z,97.10
2017-10-18T18:45:37.478Z,97.00
2017-10-18T18:48:05.006Z,96.90
2017-10-18T18:50:32.530Z,96.90
2017-10-18T18:53:02.034Z,96.90
2017-10-18T18:55:29.555Z,96.90
2017-10-18T18:57:58.199Z,96.80
2017-10-18T19:00:25.697Z,96.80
2017-10-18T19:02:53.220Z,96.90
2017-10-18T19:05:21.115Z,96.80
2017-10-18T19:07:48.651Z,96.80
2017-10-18T19:10:16.576Z,97.00
2017-10-18T19:12:44.111Z,97.00
2017-10-18T19:15:12.565Z,96.90
2017-10-18T19:17:40.486Z,97.10
2017-10-18T19:20:08.005Z,97.10
2017-10-18T19:22:36.492Z,97.10
2017-10-18T19:25:04.060Z,97.20
2017-10-18T19:27:31.594Z,97.20
2017-10-18T19:29:59.118Z,97.20
2017-10-18T19:32:26.720Z,97.20
2017-10-18T19:34:54.239Z,97.30
2017-10-18T19:37:22.675Z,97.20
2017-10-18T19:39:50.196Z,97.10
2017-10-18T19:42:18.102Z,97.50
2017-10-18T19:44:45.612Z,97.50
2017-10-18T19:47:13.138Z,97.50
2017-10-18T19:49:40.648Z,97.60
2017-10-18T19:52:10.546Z,97.60
2017-10-18T19:54:38.075Z,97.60
2017-10-18T19:57:05.568Z,97.70
2017-10-18T19:59:33.496Z,97.90
2017-10-18T20:02:01.002Z,97.90
2017-10-18T20:04:28.529Z,97.90
2017-10-18T20:06:56.030Z,97.80
2017-10-18T20:09:23.545Z,97.70
2017-10-18T20:11:51.111Z,97.60
2017-10-18T20:14:18.612Z,97.60
2017-10-18T20:16:46.126Z,97.80
2017-10-18T20:19:13.633Z,97.90
2017-10-18T20:21:41.204Z,97.90
2017-10-18T20:24:08.739Z,98.00
2017-10-18T20:26:36.260Z,98.10
2017-10-18T20:29:03.765Z,98.30
2017-10-18T20:31:31.291Z,98.30
2017-10-18T20:33:59.204Z,98.30
2017-10-18T20:36:26.716Z,98.30
2017-10-18T20:38:54.247Z,98.30
2017-10-18T20:41:21.775Z,98.30
2017-10-18T20:43:49.284Z,98.30
2017-10-18T20:46:16.863Z,98.30
2017-10-18T20:48:45.743Z,98.00
2017-10-18T20:51:13.655Z,97.90
2017-10-18T20:53:41.166Z,97.90
2017-10-18T20:56:08.661Z,97.80
2017-10-18T20:58:36.190Z,97.80
2017-10-18T21:01:04.089Z,98.00
2017-10-18T21:03:31.583Z,98.00
2017-10-18T21:05:59.092Z,98.00
2017-10-18T21:08:27.560Z,98.10
2017-10-18T21:10:55.474Z,97.90
2017-10-18T21:13:22.981Z,97.90
2017-10-18T21:15:50.900Z,98.20
2017-10-18T21:18:18.423Z,98.20
2017-10-18T21:20:46.322Z,98.20
2017-10-18T21:23:13.812Z,98.20
2017-10-18T21:25:43.306Z,98.20
2017-10-18T21:28:10.807Z,98.00
2017-10-18T21:30:38.735Z,98.10
2017-10-18T21:33:06.227Z,98.10
2017-10-18T21:35:34.120Z,98.50
2017-10-18T21:38:01.626Z,98.50
2017-10-18T21:40:29.196Z,98.40
2017-10-18T21:42:56.705Z,98.50
2017-10-18T21:45:24.223Z,98.50
2017-10-18T21:47:52.138Z,98.60
2017-10-18T21:50:19.655Z,98.70
2017-10-18T21:52:47.555Z,98.80
2017-10-18T21:55:15.140Z,98.80
2017-10-18T21:57:42.668Z,98.80
2017-10-18T22:00:10.241Z,98.70
2017-10-18T22:02:37.768Z,98.70
2017-10-18T22:05:05.663Z,98.80
2017-10-18T22:07:33.146Z,98.80
2017-10-18T22:10:00.662Z,98.70
2017-10-18T22:12:28.159Z,98.60
2017-10-18T22:14:55.694Z,98.60
2017-10-18T22:17:23.174Z,98.40
2017-10-18T22:19:51.606Z,98.20
2017-10-18T22:22:19.508Z,98.40
2017-10-18T22:24:47.025Z,98.40
2017-10-18T22:27:14.902Z,98.30
2017-10-18T22:29:43.700Z,98.30
2017-10-18T22:32:11.182Z,98.30
2017-10-18T22:34:38.687Z,98.40
2017-10-18T22:37:06.172Z,98.40
2017-10-18T22:39:33.668Z,98.30
2017-10-18T22:42:01.152Z,98.30
2017-10-18T22:44:28.648Z,98.40
2017-10-18T22:46:56.135Z,98.50
2017-10-18T22:49:23.615Z,98.70
2017-10-18T22:51:53.082Z,98.90
2017-10-18T22:54:20.570Z,99.00
2017-10-18T22:56:48.087Z,99.00
2017-10-18T22:59:15.563Z,99.00
2017-10-18T23:01:43.069Z,98.80
2017-10-18T23:04:10.542Z,98.80
2017-10-18T23:06:38.432Z,98.80
2017-10-18T23:09:05.913Z,98.80
2017-10-18T23:11:33.412Z,98.70
2017-10-18T23:14:00.900Z,98.70
2017-10-18T23:16:28.406Z,98.70
2017-10-18T23:18:55.891Z,98.80
2017-10-18T23:21:23.790Z,98.90
2017-10-18T23:23:51.276Z,98.90
2017-10-18T23:26:18.772Z,99.00
2017-10-18T23:28:46.655Z,99.30
2017-10-18T23:31:14.551Z,99.30
2017-10-18T23:33:42.029Z,99.30
2017-10-18T23:36:09.518Z,99.40
2017-10-18T23:38:37.010Z,99.40
2017-10-18T23:41:04.508Z,99.40
2017-10-18T23:43:31.997Z,99.40
2017-10-18T23:45:59.903Z,99.30
2017-10-18T23:48:27.381Z,99.30
2017-10-18T23:50:54.879Z,99.30
2017-10-18T23:53:22.750Z,99.50
2017-10-18T23:55:50.639Z,99.60
2017-10-18T23:58:18.143Z,99.60
